createdAt,value
2022-11-15T00:04:40.683Z,8.68
2022-11-15T00:09:44.890Z,8.75
2022-11-15T00:14:41.572Z,8.91
2022-11-15T00:19:40.484Z,8.91
2022-11-15T00:24:40.411Z,8.84
2022-11-15T00:29:40.354Z,8.78
2022-11-15T00:34:40.315Z,8.72
2022-11-15T00:39:40.236Z,8.63
2022-11-15T00:44:40.174Z,8.65
2022-11-15T00:49:40.091Z,8.65
2022-11-15T00:54:40.067Z,8.51
2022-11-15T00:59:39.972Z,8.45
2022-11-15T01:04:39.900Z,8.44
2022-11-15T01:09:39.830Z,8.45
2022-11-15T01:14:39.801Z,8.53
2022-11-15T01:19:39.700Z,8.42
2022-11-15T01:24:39.656Z,8.33
2022-11-15T01:29:39.595Z,8.36
2022-11-15T01:34:39.520Z,8.47
2022-11-15T01:39:39.469Z,8.62
2022-11-15T01:44:39.385Z,8.68
2022-11-15T01:49:39.629Z,8.65
2022-11-15T01:54:39.291Z,8.76
2022-11-15T01:59:39.213Z,8.94
2022-11-15T02:04:39.138Z,8.97
2022-11-15T02:09:46.027Z,8.93
2022-11-15T02:14:46.953Z,8.93
2022-11-15T02:19:38.900Z,8.90
2022-11-15T02:24:38.835Z,8.87
2022-11-15T02:29:38.772Z,8.88
2022-11-15T02:34:38.716Z,8.81
2022-11-15T02:39:38.703Z,8.72
2022-11-15T02:44:38.622Z,8.68
2022-11-15T02:49:38.556Z,8.63
2022-11-15T02:54:38.460Z,8.54
2022-11-15T02:59:38.450Z,8.50
2022-11-15T03:04:38.335Z,8.48
2022-11-15T03:09:38.250Z,8.66
2022-11-15T03:14:38.244Z,8.65
2022-11-15T03:19:38.142Z,8.63
2022-11-15T03:24:38.061Z,8.50
2022-11-15T03:29:37.990Z,8.51
2022-11-15T03:34:37.910Z,8.60
2022-11-15T03:39:37.869Z,8.48
2022-11-15T03:44:44.787Z,8.57
2022-11-15T03:49:37.707Z,8.47
2022-11-15T03:54:44.676Z,8.32
2022-11-15T03:59:37.618Z,8.33
2022-11-15T04:04:37.565Z,8.32
2022-11-15T04:09:37.455Z,8.53
2022-11-15T04:14:41.265Z,8.40
2022-11-15T04:19:37.401Z,8.28
2022-11-15T04:24:37.274Z,8.21
2022-11-15T04:29:37.285Z,8.32
2022-11-15T04:34:37.165Z,8.40
2022-11-15T04:39:37.062Z,8.51
2022-11-15T04:44:37.072Z,8.37
2022-11-15T04:49:36.924Z,8.33
2022-11-15T04:54:36.871Z,8.45
2022-11-15T04:59:36.841Z,8.30
2022-11-15T05:04:36.762Z,8.26
2022-11-15T05:09:36.762Z,8.37
2022-11-15T05:14:37.010Z,8.35
2022-11-15T05:19:36.528Z,8.25
2022-11-15T05:24:36.491Z,8.37
2022-11-15T05:29:36.423Z,8.39
2022-11-15T05:34:36.380Z,8.28
2022-11-15T05:39:36.324Z,8.18
2022-11-15T05:44:36.273Z,8.11
2022-11-15T05:49:36.153Z,8.10
2022-11-15T05:54:36.111Z,7.99
2022-11-15T05:59:36.010Z,7.92
2022-11-15T06:04:35.970Z,7.96
2022-11-15T06:09:35.878Z,7.97
2022-11-15T06:14:35.900Z,7.84
2022-11-15T06:19:35.737Z,8.07
2022-11-15T06:24:35.731Z,8.18
2022-11-15T06:29:35.648Z,8.07
2022-11-15T06:34:35.548Z,8.21
2022-11-15T06:39:35.529Z,8.36
2022-11-15T06:44:35.457Z,8.36
2022-11-15T06:49:35.365Z,8.42
2022-11-15T06:54:35.347Z,8.47
2022-11-15T06:59:39.322Z,8.53
2022-11-15T07:04:36.214Z,8.88
2022-11-15T07:09:35.157Z,9.24
2022-11-15T07:14:35.026Z,9.66
2022-11-15T07:19:34.998Z,10.01
2022-11-15T07:24:34.959Z,10.14
2022-11-15T07:29:34.854Z,10.22
2022-11-15T07:34:35.147Z,10.36
2022-11-15T07:39:34.707Z,10.40
2022-11-15T07:44:34.630Z,10.42
2022-11-15T07:49:34.612Z,10.56
2022-11-15T07:54:34.501Z,10.73
2022-11-15T07:59:34.451Z,10.68
2022-11-15T08:04:34.421Z,10.63
2022-11-15T08:09:34.342Z,10.63
2022-11-15T08:14:34.229Z,10.51
2022-11-15T08:19:34.193Z,10.53
2022-11-15T08:24:34.118Z,10.56
2022-11-15T08:29:34.024Z,10.59
2022-11-15T08:34:33.962Z,10.74
2022-11-15T08:39:33.937Z,10.89
2022-11-15T08:44:33.821Z,11.01
2022-11-15T08:49:33.772Z,11.11
2022-11-15T08:54:33.751Z,11.24
2022-11-15T08:59:33.627Z,11.32
2022-11-15T09:04:33.816Z,11.35
2022-11-15T09:09:33.861Z,11.41
2022-11-15T09:14:33.440Z,11.53
2022-11-15T09:19:33.464Z,11.59
2022-11-15T09:24:33.330Z,11.64
2022-11-15T09:29:33.222Z,11.70
2022-11-15T09:34:33.224Z,11.80
2022-11-15T09:39:33.102Z,11.82
2022-11-15T09:44:33.051Z,11.99
2022-11-15T09:49:32.990Z,12.08
2022-11-15T09:59:33.884Z,12.33
2022-11-15T10:04:32.865Z,12.45
2022-11-15T10:09:32.726Z,12.59
2022-11-15T10:14:32.642Z,12.64
2022-11-15T10:19:32.585Z,12.77
2022-11-15T10:24:32.534Z,12.88
2022-11-15T10:29:32.453Z,12.99
2022-11-15T10:34:32.405Z,13.02
2022-11-15T10:39:32.300Z,13.06
2022-11-15T10:44:32.255Z,13.15
2022-11-15T10:49:32.187Z,13.07
2022-11-15T10:54:32.164Z,13.06
2022-11-15T10:59:37.645Z,12.88
2022-11-15T11:04:33.010Z,12.96
2022-11-15T11:09:32.032Z,12.95
2022-11-15T11:14:32.066Z,12.97
2022-11-15T11:19:31.812Z,12.89
2022-11-15T11:24:31.805Z,12.93
2022-11-15T11:29:31.776Z,12.97
2022-11-15T11:34:31.612Z,13.07
2022-11-15T11:39:31.691Z,13.15
2022-11-15T11:44:31.515Z,13.21
2022-11-15T11:49:31.460Z,13.29
2022-11-15T11:54:36.267Z,13.32
2022-11-15T11:59:31.348Z,13.33
2022-11-15T12:04:31.231Z,13.29
2022-11-15T12:09:31.193Z,13.14
2022-11-15T12:14:31.175Z,13.12
2022-11-15T12:19:31.160Z,12.93
2022-11-15T12:24:31.045Z,12.84
2022-11-15T12:29:30.912Z,12.79
2022-11-15T12:34:30.901Z,12.78
2022-11-15T12:39:30.763Z,12.84
2022-11-15T12:44:30.752Z,12.82
2022-11-15T12:49:30.707Z,12.84
2022-11-15T12:54:30.593Z,12.70
2022-11-15T12:59:30.526Z,12.77
2022-11-15T13:04:30.496Z,12.78
2022-11-15T13:09:30.430Z,12.66
2022-11-15T13:14:30.318Z,12.59
2022-11-15T13:19:30.253Z,12.67
2022-11-15T13:24:30.188Z,12.62
2022-11-15T13:29:30.119Z,12.57
2022-11-15T13:34:51.084Z,12.39
2022-11-15T13:39:30.986Z,12.26
2022-11-15T13:44:29.936Z,12.11
2022-11-15T13:49:29.927Z,11.97
2022-11-15T13:54:29.877Z,11.85
2022-11-15T13:59:29.718Z,11.72
2022-11-15T14:04:29.650Z,11.62
2022-11-15T14:09:29.645Z,11.46
2022-11-15T14:14:29.526Z,11.29
2022-11-15T14:19:29.467Z,11.10
2022-11-15T14:24:29.390Z,11.06
2022-11-15T14:29:29.349Z,10.84
2022-11-15T14:34:29.281Z,10.62
2022-11-15T14:39:29.306Z,10.46
2022-11-15T14:44:29.136Z,10.32
2022-11-15T14:49:29.089Z,10.15
2022-11-15T14:54:29.006Z,10.14
2022-11-15T14:59:29.012Z,9.97
2022-11-15T15:04:28.856Z,9.86
2022-11-15T15:09:28.792Z,9.52
2022-11-15T15:14:29.012Z,9.46
2022-11-15T15:19:28.694Z,9.34
2022-11-15T15:24:28.606Z,9.10
2022-11-15T15:29:28.566Z,8.93
2022-11-15T15:34:28.490Z,8.91
2022-11-15T15:39:28.736Z,8.81
2022-11-15T15:44:28.423Z,8.69
2022-11-15T15:49:28.295Z,8.60
2022-11-15T15:54:28.469Z,8.47
2022-11-15T15:59:28.187Z,8.58
2022-11-15T16:04:28.122Z,8.47
2022-11-15T16:09:28.180Z,8.36
2022-11-15T16:14:28.225Z,8.26
2022-11-15T16:19:27.920Z,8.33
2022-11-15T16:24:27.949Z,8.25
2022-11-15T16:29:27.831Z,8.18
2022-11-15T16:34:31.581Z,8.10
2022-11-15T16:39:28.629Z,7.93
2022-11-15T16:44:27.590Z,7.81
2022-11-15T16:49:27.501Z,7.78
2022-11-15T16:54:27.441Z,7.79
2022-11-15T16:59:27.414Z,7.78
2022-11-15T17:04:27.305Z,7.55
2022-11-15T17:09:27.240Z,7.40
2022-11-15T17:14:27.192Z,7.38
2022-11-15T17:19:27.083Z,7.44
2022-11-15T17:24:34.022Z,7.45
2022-11-15T17:29:27.049Z,7.52
2022-11-15T17:34:26.903Z,7.45
2022-11-15T17:39:26.855Z,7.58
2022-11-15T17:44:26.781Z,7.60
2022-11-15T17:49:26.700Z,7.53
2022-11-15T17:54:26.701Z,7.38
2022-11-15T17:59:26.810Z,7.27
2022-11-15T18:04:26.705Z,7.20
2022-11-15T18:09:26.493Z,7.24
2022-11-15T18:14:26.385Z,7.24
2022-11-15T18:19:26.544Z,7.31
2022-11-15T18:24:26.673Z,7.38
2022-11-15T18:29:26.259Z,7.23
2022-11-15T18:34:26.261Z,7.05
2022-11-15T18:39:26.282Z,6.77
2022-11-15T18:44:26.349Z,6.61
2022-11-15T18:49:26.159Z,6.47
2022-11-15T18:54:30.924Z,6.44
2022-11-15T18:59:27.103Z,6.36
2022-11-15T19:04:25.861Z,6.30
2022-11-15T19:09:25.769Z,6.28
2022-11-15T19:14:25.674Z,6.25
2022-11-15T19:19:25.567Z,6.19
2022-11-15T19:24:25.577Z,6.19
2022-11-15T19:29:25.425Z,6.19
2022-11-15T19:34:25.407Z,6.13
2022-11-15T19:39:26.127Z,6.10
2022-11-15T19:44:25.304Z,6.11
2022-11-15T19:49:25.185Z,6.06
2022-11-15T19:54:25.165Z,6.01
2022-11-15T19:59:25.062Z,6.03
2022-11-15T20:04:25.029Z,6.07
2022-11-15T20:09:24.903Z,6.07
2022-11-15T20:14:25.384Z,6.07
2022-11-15T20:19:26.873Z,6.04
2022-11-15T20:24:24.726Z,6.07
2022-11-15T20:29:24.692Z,6.10
2022-11-15T20:34:24.657Z,6.10
2022-11-15T20:39:24.494Z,6.06
2022-11-15T20:44:24.401Z,6.04
2022-11-15T20:49:24.323Z,6.09
2022-11-15T20:54:24.270Z,6.09
2022-11-15T20:59:24.199Z,6.10
2022-11-15T21:04:24.438Z,6.13
2022-11-15T21:09:24.266Z,6.16
2022-11-15T21:14:24.282Z,6.19
2022-11-15T21:19:28.071Z,6.21
2022-11-15T21:24:24.877Z,6.18
2022-11-15T21:29:24.525Z,6.16
2022-11-15T21:34:24.036Z,6.22
2022-11-15T21:39:23.724Z,6.21
2022-11-15T21:44:23.780Z,6.21
2022-11-15T21:49:23.572Z,6.16
2022-11-15T21:54:23.466Z,6.13
2022-11-15T21:59:23.442Z,6.18
2022-11-15T22:04:23.382Z,6.26
2022-11-15T22:09:23.398Z,6.26
2022-11-15T22:14:23.242Z,6.29
2022-11-15T22:19:23.181Z,6.28
2022-11-15T22:24:23.171Z,6.32
2022-11-15T22:29:23.019Z,6.36
2022-11-15T22:34:23.444Z,6.36
2022-11-15T22:39:22.964Z,6.43
2022-11-15T22:44:23.129Z,6.40
2022-11-15T22:49:22.789Z,6.40
2022-11-15T22:54:22.683Z,6.41
2022-11-15T22:59:22.604Z,6.38
2022-11-15T23:04:22.548Z,6.40
2022-11-15T23:09:22.733Z,6.44
2022-11-15T23:14:22.456Z,6.41
2022-11-15T23:19:22.338Z,6.46
2022-11-15T23:24:22.372Z,6.47
2022-11-15T23:29:22.277Z,6.46
2022-11-15T23:34:22.581Z,6.43
2022-11-15T23:39:22.068Z,6.38
2022-11-15T23:44:22.011Z,6.40
2022-11-15T23:49:21.937Z,6.43
2022-11-15T23:54:21.921Z,6.50
2022-11-15T23:59:21.840Z,6.50
